sensor_id;sensor_type;location;lat;lon;timestamp;pressure;altitude;pressure_sealevel;temperature;humidity
61408;BME280;47274;43.054;25.146;2024-03-25T00:00:22;94151.16;;;6.86;100.00
61408;BME280;47274;43.054;25.146;2024-03-25T00:02:55;94166.13;;;6.89;100.00
61408;BME280;47274;43.054;25.146;2024-03-25T00:05:25;94167.75;;;6.99;100.00
61408;BME280;47274;43.054;25.146;2024-03-25T00:07:55;94174.13;;;7.03;100.00
61408;BME280;47274;43.054;25.146;2024-03-25T00:10:23;94174.09;;;6.86;100.00
61408;BME280;47274;43.054;25.146;2024-03-25T00:13:00;94174.41;;;6.83;100.00
61408;BME280;47274;43.054;25.146;2024-03-25T00:15:28;94170.59;;;6.79;100.00
61408;BME280;47274;43.054;25.146;2024-03-25T00:17:56;94185.38;;;6.68;100.00
61408;BME280;47274;43.054;25.146;2024-03-25T00:20:26;94174.66;;;6.48;100.00
61408;BME280;47274;43.054;25.146;2024-03-25T00:22:58;94172.75;;;6.50;100.00
61408;BME280;47274;43.054;25.146;2024-03-25T00:25:30;94171.59;;;6.36;100.00
61408;BME280;47274;43.054;25.146;2024-03-25T00:28:01;94171.59;;;6.44;100.00
61408;BME280;47274;43.054;25.146;2024-03-25T00:30:33;94171.41;;;6.29;100.00
61408;BME280;47274;43.054;25.146;2024-03-25T00:33:05;94176.16;;;6.32;100.00
61408;BME280;47274;43.054;25.146;2024-03-25T00:35:37;94179.50;;;6.25;100.00
61408;BME280;47274;43.054;25.146;2024-03-25T00:38:08;94185.44;;;6.33;100.00
61408;BME280;47274;43.054;25.146;2024-03-25T00:40:49;94200.06;;;6.31;100.00
61408;BME280;47274;43.054;25.146;2024-03-25T00:43:20;94197.88;;;6.36;100.00
61408;BME280;47274;43.054;25.146;2024-03-25T00:45:51;94181.13;;;6.34;100.00
61408;BME280;47274;43.054;25.146;2024-03-25T00:48:23;94198.50;;;6.38;100.00
61408;BME280;47274;43.054;25.146;2024-03-25T00:50:51;94202.31;;;6.43;100.00
61408;BME280;47274;43.054;25.146;2024-03-25T00:53:22;94205.84;;;6.41;100.00
61408;BME280;47274;43.054;25.146;2024-03-25T00:55:54;94192.13;;;6.43;100.00
61408;BME280;47274;43.054;25.146;2024-03-25T00:58:22;94206.31;;;6.45;100.00
61408;BME280;47274;43.054;25.146;2024-03-25T01:00:56;94205.84;;;6.41;100.00
61408;BME280;47274;43.054;25.146;2024-03-25T01:03:36;94190.03;;;6.30;100.00
61408;BME280;47274;43.054;25.146;2024-03-25T01:06:05;94178.38;;;6.19;100.00
61408;BME280;47274;43.054;25.146;2024-03-25T01:08:37;94173.50;;;6.08;100.00
61408;BME280;47274;43.054;25.146;2024-03-25T01:11:14;94200.75;;;6.07;100.00
61408;BME280;47274;43.054;25.146;2024-03-25T01:13:42;94187.38;;;5.87;100.00
61408;BME280;47274;43.054;25.146;2024-03-25T01:16:10;94182.84;;;5.73;100.00
61408;BME280;47274;43.054;25.146;2024-03-25T01:18:44;94177.47;;;5.76;100.00
61408;BME280;47274;43.054;25.146;2024-03-25T01:21:18;94187.91;;;5.65;100.00
61408;BME280;47274;43.054;25.146;2024-03-25T01:23:48;94176.94;;;5.46;100.00
61408;BME280;47274;43.054;25.146;2024-03-25T01:26:16;94166.72;;;5.38;100.00
61408;BME280;47274;43.054;25.146;2024-03-25T01:28:47;94164.91;;;4.95;100.00
61408;BME280;47274;43.054;25.146;2024-03-25T01:31:17;94186.22;;;4.94;100.00
61408;BME280;47274;43.054;25.146;2024-03-25T01:33:48;94200.28;;;4.88;100.00
61408;BME280;47274;43.054;25.146;2024-03-25T01:36:15;94192.66;;;4.70;100.00
61408;BME280;47274;43.054;25.146;2024-03-25T01:38:46;94200.56;;;4.67;100.00
61408;BME280;47274;43.054;25.146;2024-03-25T01:41:16;94191.59;;;4.45;100.00
61408;BME280;47274;43.054;25.146;2024-03-25T01:43:51;94204.47;;;4.34;100.00
61408;BME280;47274;43.054;25.146;2024-03-25T01:46:22;94199.97;;;4.28;100.00
61408;BME280;47274;43.054;25.146;2024-03-25T01:48:58;94208.03;;;4.14;100.00
61408;BME280;47274;43.054;25.146;2024-03-25T01:51:25;94216.44;;;4.14;100.00
61408;BME280;47274;43.054;25.146;2024-03-25T01:54:00;94216.06;;;4.09;100.00
61408;BME280;47274;43.054;25.146;2024-03-25T01:56:35;94204.19;;;4.00;100.00
61408;BME280;47274;43.054;25.146;2024-03-25T01:59:14;94209.59;;;3.77;100.00
61408;BME280;47274;43.054;25.146;2024-03-25T02:01:51;94187.47;;;3.70;100.00
61408;BME280;47274;43.054;25.146;2024-03-25T02:04:23;94213.09;;;3.76;100.00
61408;BME280;47274;43.054;25.146;2024-03-25T02:06:56;94206.41;;;3.75;100.00
61408;BME280;47274;43.054;25.146;2024-03-25T02:09:29;94199.72;;;3.74;100.00
61408;BME280;47274;43.054;25.146;2024-03-25T02:11:56;94202.78;;;3.88;100.00
61408;BME280;47274;43.054;25.146;2024-03-25T02:14:26;94198.75;;;3.85;100.00
61408;BME280;47274;43.054;25.146;2024-03-25T02:16:57;94195.72;;;3.72;100.00
61408;BME280;47274;43.054;25.146;2024-03-25T02:19:37;94200.69;;;3.64;100.00
61408;BME280;47274;43.054;25.146;2024-03-25T02:22:08;94211.25;;;3.49;100.00
61408;BME280;47274;43.054;25.146;2024-03-25T02:27:42;94223.69;;;3.43;100.00
61408;BME280;47274;43.054;25.146;2024-03-25T02:30:16;94197.53;;;3.23;100.00
61408;BME280;47274;43.054;25.146;2024-03-25T02:32:47;94234.88;;;3.40;100.00
61408;BME280;47274;43.054;25.146;2024-03-25T02:35:22;94230.09;;;3.37;100.00
61408;BME280;47274;43.054;25.146;2024-03-25T02:37:51;94204.34;;;3.13;100.00
61408;BME280;47274;43.054;25.146;2024-03-25T02:40:22;94224.47;;;3.24;100.00
61408;BME280;47274;43.054;25.146;2024-03-25T02:42:54;94221.69;;;3.27;100.00
61408;BME280;47274;43.054;25.146;2024-03-25T02:45:37;94213.13;;;3.28;100.00
61408;BME280;47274;43.054;25.146;2024-03-25T02:48:13;94229.03;;;3.30;100.00
61408;BME280;47274;43.054;25.146;2024-03-25T02:50:59;94214.22;;;3.25;100.00
61408;BME280;47274;43.054;25.146;2024-03-25T02:53:34;94204.59;;;3.19;100.00
61408;BME280;47274;43.054;25.146;2024-03-25T02:56:04;94220.63;;;3.29;100.00
61408;BME280;47274;43.054;25.146;2024-03-25T02:58:38;94221.03;;;3.25;100.00
61408;BME280;47274;43.054;25.146;2024-03-25T03:01:09;94226.63;;;3.19;100.00
61408;BME280;47274;43.054;25.146;2024-03-25T03:03:47;94233.44;;;3.08;100.00
61408;BME280;47274;43.054;25.146;2024-03-25T03:06:23;94233.81;;;3.04;100.00
61408;BME280;47274;43.054;25.146;2024-03-25T03:08:53;94220.16;;;2.76;100.00
61408;BME280;47274;43.054;25.146;2024-03-25T03:11:23;94226.03;;;2.76;100.00
61408;BME280;47274;43.054;25.146;2024-03-25T03:13:52;94218.28;;;2.58;100.00
61408;BME280;47274;43.054;25.146;2024-03-25T03:16:19;94229.09;;;2.70;100.00
61408;BME280;47274;43.054;25.146;2024-03-25T03:19:00;94232.56;;;2.69;100.00
61408;BME280;47274;43.054;25.146;2024-03-25T03:21:33;94225.88;;;2.58;100.00
61408;BME280;47274;43.054;25.146;2024-03-25T03:24:30;94247.59;;;2.61;100.00
61408;BME280;47274;43.054;25.146;2024-03-25T03:27:02;94236.56;;;2.31;100.00
61408;BME280;47274;43.054;25.146;2024-03-25T03:29:36;94250.16;;;2.30;100.00
61408;BME280;47274;43.054;25.146;2024-03-25T03:32:22;94229.97;;;2.40;100.00
61408;BME280;47274;43.054;25.146;2024-03-25T03:34:55;94226.91;;;2.46;100.00
61408;BME280;47274;43.054;25.146;2024-03-25T03:37:25;94229.28;;;2.38;100.00
61408;BME280;47274;43.054;25.146;2024-03-25T03:39:56;94233.97;;;2.52;100.00
61408;BME280;47274;43.054;25.146;2024-03-25T03:42:46;94230.06;;;2.38;100.00
61408;BME280;47274;43.054;25.146;2024-03-25T03:45:13;94233.56;;;2.47;100.00
61408;BME280;47274;43.054;25.146;2024-03-25T03:47:45;94239.16;;;2.41;100.00
61408;BME280;47274;43.054;25.146;2024-03-25T03:50:20;94230.56;;;2.23;100.00
61408;BME280;47274;43.054;25.146;2024-03-25T03:52:51;94226.06;;;2.26;100.00
61408;BME280;47274;43.054;25.146;2024-03-25T03:55:18;94240.59;;;2.34;100.00
61408;BME280;47274;43.054;25.146;2024-03-25T03:57:54;94236.56;;;2.31;100.00
61408;BME280;47274;43.054;25.146;2024-03-25T04:00:32;94231.16;;;2.36;100.00
61408;BME280;47274;43.054;25.146;2024-03-25T04:02:59;94250.41;;;2.27;100.00
61408;BME280;47274;43.054;25.146;2024-03-25T04:05:31;94242.38;;;2.12;100.00
61408;BME280;47274;43.054;25.146;2024-03-25T04:08:06;94242.69;;;1.98;100.00
61408;BME280;47274;43.054;25.146;2024-03-25T04:10:35;94259.94;;;1.83;100.00
61408;BME280;47274;43.054;25.146;2024-03-25T04:13:13;94226.44;;;1.49;100.00
61408;BME280;47274;43.054;25.146;2024-03-25T04:15:51;94255.66;;;1.63;100.00
61408;BME280;47274;43.054;25.146;2024-03-25T04:18:33;94227.31;;;1.38;100.00
61408;BME280;47274;43.054;25.146;2024-03-25T04:21:24;94246.34;;;1.63;100.00
61408;BME280;47274;43.054;25.146;2024-03-25T04:24:00;94254.94;;;1.72;100.00
61408;BME280;47274;43.054;25.146;2024-03-25T04:26:39;94258.75;;;1.66;100.00
61408;BME280;47274;43.054;25.146;2024-03-25T04:29:14;94257.09;;;1.77;100.00
61408;BME280;47274;43.054;25.146;2024-03-25T04:31:55;94264.75;;;1.86;100.00
61408;BME280;47274;43.054;25.146;2024-03-25T04:34:26;94255.63;;;1.95;100.00
61408;BME280;47274;43.054;25.146;2024-03-25T04:37:06;94265.19;;;1.92;100.00
61408;BME280;47274;43.054;25.146;2024-03-25T04:39:46;94257.22;;;1.96;100.00
61408;BME280;47274;43.054;25.146;2024-03-25T04:42:27;94261.44;;;2.17;100.00
61408;BME280;47274;43.054;25.146;2024-03-25T04:44:59;94268.94;;;2.28;100.00
61408;BME280;47274;43.054;25.146;2024-03-25T04:47:30;94263.38;;;2.34;100.00
61408;BME280;47274;43.054;25.146;2024-03-25T04:49:59;94278.31;;;2.37;100.00
61408;BME280;47274;43.054;25.146;2024-03-25T04:52:37;94273.66;;;2.42;100.00
61408;BME280;47274;43.054;25.146;2024-03-25T04:55:10;94245.75;;;2.32;100.00
61408;BME280;47274;43.054;25.146;2024-03-25T04:57:45;94287.06;;;2.64;100.00
61408;BME280;47274;43.054;25.146;2024-03-25T05:00:16;94293.59;;;2.56;100.00
61408;BME280;47274;43.054;25.146;2024-03-25T05:02:50;94299.69;;;2.54;100.00
61408;BME280;47274;43.054;25.146;2024-03-25T05:05:25;94303.72;;;2.56;100.00
61408;BME280;47274;43.054;25.146;2024-03-25T05:07:58;94238.91;;;2.13;100.00
61408;BME280;47274;43.054;25.146;2024-03-25T05:10:36;94307.84;;;2.57;100.00
61408;BME280;47274;43.054;25.146;2024-03-25T05:13:08;94298.22;;;2.51;100.00
61408;BME280;47274;43.054;25.146;2024-03-25T05:15:50;94302.34;;;2.52;100.00
61408;BME280;47274;43.054;25.146;2024-03-25T05:18:24;94304.84;;;2.43;100.00
61408;BME280;47274;43.054;25.146;2024-03-25T05:20:53;94308.59;;;2.48;100.00
61408;BME280;47274;43.054;25.146;2024-03-25T05:23:22;94313.81;;;2.47;100.00
61408;BME280;47274;43.054;25.146;2024-03-25T05:25:57;94301.75;;;2.39;100.00
61408;BME280;47274;43.054;25.146;2024-03-25T05:28:30;94314.41;;;2.39;100.00
61408;BME280;47274;43.054;25.146;2024-03-25T05:31:04;94316.19;;;2.48;100.00
61408;BME280;47274;43.054;25.146;2024-03-25T05:33:35;94304.97;;;2.41;100.00
61408;BME280;47274;43.054;25.146;2024-03-25T05:36:07;94328.75;;;2.59;100.00
61408;BME280;47274;43.054;25.146;2024-03-25T05:38:48;94331.56;;;2.56;100.00
61408;BME280;47274;43.054;25.146;2024-03-25T05:41:21;94338.81;;;2.71;100.00
61408;BME280;47274;43.054;25.146;2024-03-25T05:43:55;94340.56;;;2.70;100.00
61408;BME280;47274;43.054;25.146;2024-03-25T05:46:35;94332.38;;;2.67;100.00
61408;BME280;47274;43.054;25.146;2024-03-25T05:49:08;94353.94;;;2.82;100.00
61408;BME280;47274;43.054;25.146;2024-03-25T05:51:37;94349.41;;;2.85;100.00
61408;BME280;47274;43.054;25.146;2024-03-25T05:54:11;94348.41;;;2.77;100.00
61408;BME280;47274;43.054;25.146;2024-03-25T05:56:44;94356.47;;;2.82;100.00
61408;BME280;47274;43.054;25.146;2024-03-25T05:59:11;94339.16;;;2.56;100.00
61408;BME280;47274;43.054;25.146;2024-03-25T06:01:45;94369.81;;;2.84;100.00
61408;BME280;47274;43.054;25.146;2024-03-25T06:04:20;94372.44;;;2.82;100.00
61408;BME280;47274;43.054;25.146;2024-03-25T06:06:48;94372.63;;;2.91;100.00
61408;BME280;47274;43.054;25.146;2024-03-25T06:09:17;94371.53;;;2.83;100.00
61408;BME280;47274;43.054;25.146;2024-03-25T06:11:46;94369.16;;;2.92;100.00
61408;BME280;47274;43.054;25.146;2024-03-25T06:14:21;94366.88;;;2.89;100.00
61408;BME280;47274;43.054;25.146;2024-03-25T06:16:58;94375.28;;;2.89;100.00
61408;BME280;47274;43.054;25.146;2024-03-25T06:19:30;94374.09;;;2.93;100.00
61408;BME280;47274;43.054;25.146;2024-03-25T06:21:58;94374.34;;;2.90;100.00
61408;BME280;47274;43.054;25.146;2024-03-25T06:24:32;94381.03;;;2.91;100.00
61408;BME280;47274;43.054;25.146;2024-03-25T06:27:10;94377.31;;;2.95;100.00
61408;BME280;47274;43.054;25.146;2024-03-25T06:29:41;94349.09;;;2.79;100.00
61408;BME280;47274;43.054;25.146;2024-03-25T06:32:15;94384.38;;;2.92;100.00
61408;BME280;47274;43.054;25.146;2024-03-25T06:35:07;94355.47;;;2.64;100.00
61408;BME280;47274;43.054;25.146;2024-03-25T06:37:34;94386.16;;;2.80;100.00
61408;BME280;47274;43.054;25.146;2024-03-25T06:40:10;94385.75;;;2.75;100.00
61408;BME280;47274;43.054;25.146;2024-03-25T06:42:42;94397.19;;;2.69;100.00
61408;BME280;47274;43.054;25.146;2024-03-25T06:45:14;94394.59;;;2.80;100.00
61408;BME280;47274;43.054;25.146;2024-03-25T06:47:55;94399.63;;;2.71;100.00
61408;BME280;47274;43.054;25.146;2024-03-25T06:50:28;94398.25;;;2.67;100.00
61408;BME280;47274;43.054;25.146;2024-03-25T06:53:15;94391.72;;;2.64;100.00
61408;BME280;47274;43.054;25.146;2024-03-25T06:55:58;94400.66;;;2.68;100.00
61408;BME280;47274;43.054;25.146;2024-03-25T06:58:34;94403.13;;;2.58;100.00
61408;BME280;47274;43.054;25.146;2024-03-25T07:01:13;94408.66;;;2.64;100.00
61408;BME280;47274;43.054;25.146;2024-03-25T07:03:47;94412.78;;;2.65;100.00
61408;BME280;47274;43.054;25.146;2024-03-25T07:06:17;94422.59;;;2.58;100.00
61408;BME280;47274;43.054;25.146;2024-03-25T07:08:48;94414.50;;;2.64;100.00
61408;BME280;47274;43.054;25.146;2024-03-25T07:11:22;94411.44;;;2.60;100.00
61408;BME280;47274;43.054;25.146;2024-03-25T07:14:32;94435.31;;;2.68;100.00
61408;BME280;47274;43.054;25.146;2024-03-25T07:17:16;94440.63;;;2.65;100.00
61408;BME280;47274;43.054;25.146;2024-03-25T07:19:49;94429.56;;;2.66;100.00
61408;BME280;47274;43.054;25.146;2024-03-25T07:22:51;94443.72;;;2.68;100.00
61408;BME280;47274;43.054;25.146;2024-03-25T07:25:25;94446.13;;;2.70;100.00
61408;BME280;47274;43.054;25.146;2024-03-25T07:27:53;94437.97;;;2.66;100.00
61408;BME280;47274;43.054;25.146;2024-03-25T07:30:26;94444.66;;;2.67;100.00
61408;BME280;47274;43.054;25.146;2024-03-25T07:32:59;94450.78;;;2.65;100.00
61408;BME280;47274;43.054;25.146;2024-03-25T07:35:31;94456.50;;;2.67;100.00
61408;BME280;47274;43.054;25.146;2024-03-25T07:38:13;94442.47;;;2.63;100.00
61408;BME280;47274;43.054;25.146;2024-03-25T07:40:42;94458.91;;;2.68;100.00
61408;BME280;47274;43.054;25.146;2024-03-25T07:43:15;94465.34;;;2.72;100.00
61408;BME280;47274;43.054;25.146;2024-03-25T07:45:51;94461.22;;;2.71;100.00
61408;BME280;47274;43.054;25.146;2024-03-25T07:48:19;94457.00;;;2.81;100.00
61408;BME280;47274;43.054;25.146;2024-03-25T07:50:51;94461.44;;;2.89;100.00
61408;BME280;47274;43.054;25.146;2024-03-25T07:53:18;94456.53;;;2.97;100.00
61408;BME280;47274;43.054;25.146;2024-03-25T07:55:53;94450.25;;;2.92;100.00
61408;BME280;47274;43.054;25.146;2024-03-25T07:58:22;94466.25;;;2.92;100.00
61408;BME280;47274;43.054;25.146;2024-03-25T08:01:00;94462.28;;;2.99;100.00
61408;BME280;47274;43.054;25.146;2024-03-25T08:03:35;94436.72;;;2.81;100.00
61408;BME280;47274;43.054;25.146;2024-03-25T08:06:10;94456.41;;;2.99;100.00
61408;BME280;47274;43.054;25.146;2024-03-25T08:08:43;94473.72;;;3.15;100.00
61408;BME280;47274;43.054;25.146;2024-03-25T08:11:15;94481.03;;;3.18;100.00
61408;BME280;47274;43.054;25.146;2024-03-25T08:13:49;94484.25;;;3.20;100.00
61408;BME280;47274;43.054;25.146;2024-03-25T08:16:31;94476.84;;;3.07;100.00
61408;BME280;47274;43.054;25.146;2024-03-25T08:19:06;94472.03;;;3.04;100.00
61408;BME280;47274;43.054;25.146;2024-03-25T08:21:36;94481.97;;;3.17;100.00
61408;BME280;47274;43.054;25.146;2024-03-25T08:24:11;94488.78;;;3.16;100.00
61408;BME280;47274;43.054;25.146;2024-03-25T08:26:45;94462.97;;;3.01;100.00
61408;BME280;47274;43.054;25.146;2024-03-25T08:29:13;94483.00;;;3.14;100.00
61408;BME280;47274;43.054;25.146;2024-03-25T08:31:49;94486.84;;;3.29;100.00
61408;BME280;47274;43.054;25.146;2024-03-25T08:34:21;94493.00;;;3.37;100.00
61408;BME280;47274;43.054;25.146;2024-03-25T08:36:49;94458.09;;;3.19;100.00
61408;BME280;47274;43.054;25.146;2024-03-25T08:39:24;94489.16;;;3.42;100.00
61408;BME280;47274;43.054;25.146;2024-03-25T08:42:04;94436.72;;;3.12;100.00
61408;BME280;47274;43.054;25.146;2024-03-25T08:44:35;94492.97;;;3.67;100.00
61408;BME280;47274;43.054;25.146;2024-03-25T08:47:23;94488.22;;;3.93;100.00
61408;BME280;47274;43.054;25.146;2024-03-25T08:50:21;94495.47;;;4.17;100.00
61408;BME280;47274;43.054;25.146;2024-03-25T08:52:50;94491.03;;;4.10;100.00
61408;BME280;47274;43.054;25.146;2024-03-25T08:55:19;94504.53;;;4.30;100.00
61408;BME280;47274;43.054;25.146;2024-03-25T08:57:50;94494.41;;;4.59;100.00
61408;BME280;47274;43.054;25.146;2024-03-25T09:00:22;94496.66;;;4.62;100.00
61408;BME280;47274;43.054;25.146;2024-03-25T09:02:59;94496.13;;;4.48;100.00
61408;BME280;47274;43.054;25.146;2024-03-25T09:05:29;94508.03;;;4.28;100.00
61408;BME280;47274;43.054;25.146;2024-03-25T09:08:01;94502.69;;;4.41;100.00
61408;BME280;47274;43.054;25.146;2024-03-25T09:10:30;94503.88;;;4.37;100.00
61408;BME280;47274;43.054;25.146;2024-03-25T09:13:24;94517.63;;;4.44;100.00
61408;BME280;47274;43.054;25.146;2024-03-25T09:15:56;94508.44;;;4.43;100.00
61408;BME280;47274;43.054;25.146;2024-03-25T09:18:26;94522.72;;;4.44;100.00
61408;BME280;47274;43.054;25.146;2024-03-25T09:21:00;94520.34;;;4.43;100.00
61408;BME280;47274;43.054;25.146;2024-03-25T09:23:31;94495.72;;;4.14;100.00
61408;BME280;47274;43.054;25.146;2024-03-25T09:26:04;94535.69;;;4.22;100.00
61408;BME280;47274;43.054;25.146;2024-03-25T09:28:39;94543.69;;;4.08;100.00
61408;BME280;47274;43.054;25.146;2024-03-25T09:31:11;94543.53;;;3.99;100.00
61408;BME280;47274;43.054;25.146;2024-03-25T09:33:42;94537.09;;;3.95;100.00
61408;BME280;47274;43.054;25.146;2024-03-25T09:36:16;94533.34;;;3.80;100.00
61408;BME280;47274;43.054;25.146;2024-03-25T09:38:47;94521.56;;;3.79;100.00
61408;BME280;47274;43.054;25.146;2024-03-25T09:41:28;94527.19;;;3.83;100.00
61408;BME280;47274;43.054;25.146;2024-03-25T09:44:03;94537.78;;;3.97;100.00
61408;BME280;47274;43.054;25.146;2024-03-25T09:46:33;94539.41;;;4.08;100.00
61408;BME280;47274;43.054;25.146;2024-03-25T09:49:20;94549.03;;;4.14;100.00
61408;BME280;47274;43.054;25.146;2024-03-25T09:51:50;94547.31;;;4.24;100.00
61408;BME280;47274;43.054;25.146;2024-03-25T09:54:31;94559.38;;;4.32;100.00
61408;BME280;47274;43.054;25.146;2024-03-25T09:57:01;94541.16;;;4.27;100.00
61408;BME280;47274;43.054;25.146;2024-03-25T09:59:30;94551.59;;;4.24;100.00
61408;BME280;47274;43.054;25.146;2024-03-25T10:01:59;94552.78;;;4.20;100.00
61408;BME280;47274;43.054;25.146;2024-03-25T10:04:28;94550.16;;;4.31;100.00
61408;BME280;47274;43.054;25.146;2024-03-25T10:07:01;94546.97;;;4.58;100.00
61408;BME280;47274;43.054;25.146;2024-03-25T10:09:34;94547.81;;;5.25;100.00
61408;BME280;47274;43.054;25.146;2024-03-25T10:12:03;94542.50;;;5.93;100.00
61408;BME280;47274;43.054;25.146;2024-03-25T10:14:35;94528.38;;;6.44;100.00
61408;BME280;47274;43.054;25.146;2024-03-25T10:17:08;94539.09;;;7.09;100.00
61408;BME280;47274;43.054;25.146;2024-03-25T10:19:42;94536.97;;;7.91;99.90
61408;BME280;47274;43.054;25.146;2024-03-25T10:22:12;94531.81;;;8.17;94.62
61408;BME280;47274;43.054;25.146;2024-03-25T10:24:50;94519.16;;;8.16;96.38
61408;BME280;47274;43.054;25.146;2024-03-25T10:27:19;94521.44;;;7.76;91.66
61408;BME280;47274;43.054;25.146;2024-03-25T10:29:53;94533.06;;;7.45;91.91
61408;BME280;47274;43.054;25.146;2024-03-25T10:32:22;94522.41;;;6.97;89.80
61408;BME280;47274;43.054;25.146;2024-03-25T10:34:57;94525.69;;;7.59;93.36
61408;BME280;47274;43.054;25.146;2024-03-25T10:37:29;94520.16;;;8.31;87.82
61408;BME280;47274;43.054;25.146;2024-03-25T10:40:04;94522.16;;;9.02;86.70
61408;BME280;47274;43.054;25.146;2024-03-25T10:42:39;94510.09;;;9.44;80.40
61408;BME280;47274;43.054;25.146;2024-03-25T10:45:20;94519.16;;;9.63;80.87
61408;BME280;47274;43.054;25.146;2024-03-25T10:47:55;94510.19;;;10.06;78.45
61408;BME280;47274;43.054;25.146;2024-03-25T10:50:30;94488.56;;;9.69;76.78
61408;BME280;47274;43.054;25.146;2024-03-25T10:52:59;94534.03;;;9.67;77.91
61408;BME280;47274;43.054;25.146;2024-03-25T10:55:31;94527.13;;;10.15;78.35
61408;BME280;47274;43.054;25.146;2024-03-25T10:58:08;94517.53;;;10.09;72.79
61408;BME280;47274;43.054;25.146;2024-03-25T11:00:37;94520.66;;;10.36;73.55
61408;BME280;47274;43.054;25.146;2024-03-25T11:03:11;94512.47;;;10.32;71.08
61408;BME280;47274;43.054;25.146;2024-03-25T11:05:51;94518.31;;;10.72;70.85
61408;BME280;47274;43.054;25.146;2024-03-25T11:08:20;94523.53;;;10.79;67.07
61408;BME280;47274;43.054;25.146;2024-03-25T11:10:53;94526.22;;;10.00;69.89
61408;BME280;47274;43.054;25.146;2024-03-25T11:13:27;94531.47;;;9.67;69.30
61408;BME280;47274;43.054;25.146;2024-03-25T11:16:00;94501.97;;;9.16;72.65
61408;BME280;47274;43.054;25.146;2024-03-25T11:18:32;94538.63;;;9.16;74.18
61408;BME280;47274;43.054;25.146;2024-03-25T11:21:10;94532.38;;;8.78;73.46
61408;BME280;47274;43.054;25.146;2024-03-25T11:23:42;94532.69;;;8.50;76.74
61408;BME280;47274;43.054;25.146;2024-03-25T11:26:25;94533.47;;;8.51;75.73
61408;BME280;47274;43.054;25.146;2024-03-25T11:29:00;94524.00;;;8.35;77.45
61408;BME280;47274;43.054;25.146;2024-03-25T11:31:30;94495.78;;;8.69;77.89
61408;BME280;47274;43.054;25.146;2024-03-25T11:34:07;94516.56;;;9.07;73.30
61408;BME280;47274;43.054;25.146;2024-03-25T11:36:36;94515.13;;;9.13;70.89
61408;BME280;47274;43.054;25.146;2024-03-25T11:39:09;94514.75;;;9.40;69.93
61408;BME280;47274;43.054;25.146;2024-03-25T11:41:45;94520.03;;;8.41;69.68
61408;BME280;47274;43.054;25.146;2024-03-25T11:44:16;94497.44;;;8.12;72.53
61408;BME280;47274;43.054;25.146;2024-03-25T11:46:51;94513.63;;;7.86;75.37
61408;BME280;47274;43.054;25.146;2024-03-25T11:49:21;94525.22;;;7.38;74.45
61408;BME280;47274;43.054;25.146;2024-03-25T11:52:21;94514.13;;;7.47;75.46
61408;BME280;47274;43.054;25.146;2024-03-25T11:54:53;94517.97;;;7.51;76.51
61408;BME280;47274;43.054;25.146;2024-03-25T11:57:25;94530.81;;;7.68;78.70
61408;BME280;47274;43.054;25.146;2024-03-25T11:59:55;94535.09;;;8.85;75.39
61408;BME280;47274;43.054;25.146;2024-03-25T12:02:25;94527.44;;;8.85;72.20
61408;BME280;47274;43.054;25.146;2024-03-25T12:04:58;94528.19;;;9.34;67.67
61408;BME280;47274;43.054;25.146;2024-03-25T12:07:26;94535.59;;;8.88;65.98
61408;BME280;47274;43.054;25.146;2024-03-25T12:10:06;94531.81;;;8.34;70.02
61408;BME280;47274;43.054;25.146;2024-03-25T12:13:01;94519.50;;;7.78;74.62
61408;BME280;47274;43.054;25.146;2024-03-25T12:15:36;94531.88;;;7.31;77.72
61408;BME280;47274;43.054;25.146;2024-03-25T12:18:06;94525.25;;;7.12;84.06
61408;BME280;47274;43.054;25.146;2024-03-25T12:20:35;94532.13;;;7.20;84.44
61408;BME280;47274;43.054;25.146;2024-03-25T12:23:06;94531.69;;;7.93;84.44
61408;BME280;47274;43.054;25.146;2024-03-25T12:25:39;94526.50;;;8.86;82.96
61408;BME280;47274;43.054;25.146;2024-03-25T12:28:13;94512.56;;;8.72;80.16
61408;BME280;47274;43.054;25.146;2024-03-25T12:30:54;94535.97;;;8.26;80.59
61408;BME280;47274;43.054;25.146;2024-03-25T12:33:43;94526.06;;;7.81;81.76
61408;BME280;47274;43.054;25.146;2024-03-25T12:36:26;94542.56;;;7.52;82.16
61408;BME280;47274;43.054;25.146;2024-03-25T12:39:01;94560.38;;;7.18;84.42
61408;BME280;47274;43.054;25.146;2024-03-25T12:41:30;94556.81;;;6.93;85.98
61408;BME280;47274;43.054;25.146;2024-03-25T12:44:00;94528.06;;;6.65;87.32
61408;BME280;47274;43.054;25.146;2024-03-25T12:46:37;94544.44;;;6.27;87.31
61408;BME280;47274;43.054;25.146;2024-03-25T12:49:10;94528.13;;;6.02;86.90
61408;BME280;47274;43.054;25.146;2024-03-25T12:51:39;94564.66;;;6.10;86.57
61408;BME280;47274;43.054;25.146;2024-03-25T12:54:10;94566.69;;;5.69;89.06
61408;BME280;47274;43.054;25.146;2024-03-25T12:56:42;94561.28;;;5.82;89.94
61408;BME280;47274;43.054;25.146;2024-03-25T12:59:09;94554.38;;;6.02;89.74
61408;BME280;47274;43.054;25.146;2024-03-25T13:01:48;94567.69;;;5.86;91.49
61408;BME280;47274;43.054;25.146;2024-03-25T13:04:26;94563.53;;;5.85;91.45
61408;BME280;47274;43.054;25.146;2024-03-25T13:06:58;94566.00;;;6.05;93.51
61408;BME280;47274;43.054;25.146;2024-03-25T13:09:30;94564.28;;;6.05;91.96
61408;BME280;47274;43.054;25.146;2024-03-25T13:12:07;94560.19;;;6.40;92.00
61408;BME280;47274;43.054;25.146;2024-03-25T13:14:38;94558.88;;;6.72;91.52
61408;BME280;47274;43.054;25.146;2024-03-25T13:17:05;94559.59;;;6.82;90.10
61408;BME280;47274;43.054;25.146;2024-03-25T13:19:35;94552.47;;;6.68;90.21
61408;BME280;47274;43.054;25.146;2024-03-25T13:22:05;94556.91;;;6.83;88.78
61408;BME280;47274;43.054;25.146;2024-03-25T13:24:35;94541.59;;;6.83;85.88
61408;BME280;47274;43.054;25.146;2024-03-25T13:27:08;94537.66;;;6.89;85.94
61408;BME280;47274;43.054;25.146;2024-03-25T13:29:40;94533.22;;;7.17;84.48